createdAt,value
2022-09-17T00:01:27.442Z,11.40
2022-09-17T00:03:56.823Z,11.40
2022-09-17T00:06:25.622Z,11.40
2022-09-17T00:08:53.666Z,11.40
2022-09-17T00:14:17.151Z,11.40
2022-09-17T00:16:46.768Z,11.40
2022-09-17T00:19:20.655Z,11.40
2022-09-17T00:21:47.671Z,11.40
2022-09-17T00:24:15.906Z,11.40
2022-09-17T00:26:43.064Z,11.30
2022-09-17T00:29:10.894Z,11.40
2022-09-17T00:31:38.085Z,11.40
2022-09-17T00:34:06.389Z,11.40
2022-09-17T00:39:23.288Z,11.50
2022-09-17T00:41:50.016Z,11.50
2022-09-17T00:44:38.707Z,11.50
2022-09-17T00:50:02.853Z,11.50
2022-09-17T00:52:37.941Z,11.50
2022-09-17T00:55:22.778Z,11.50
2022-09-17T00:57:52.441Z,11.50
2022-09-17T01:00:19.646Z,11.60
2022-09-17T01:02:46.661Z,11.60
2022-09-17T01:05:14.339Z,11.60
2022-09-17T01:08:06.404Z,11.60
2022-09-17T01:11:06.022Z,11.50
2022-09-17T01:13:47.610Z,11.60
2022-09-17T01:16:27.177Z,11.60
2022-09-17T01:19:23.271Z,11.60
2022-09-17T01:22:27.745Z,11.70
2022-09-17T01:25:15.810Z,11.60
2022-09-17T01:27:59.708Z,11.60
2022-09-17T01:30:45.106Z,11.60
2022-09-17T01:33:35.720Z,11.60
2022-09-17T01:39:36.031Z,11.60
2022-09-17T01:42:43.078Z,11.60
2022-09-17T01:45:22.062Z,11.50
2022-09-17T01:47:57.616Z,11.60
2022-09-17T01:50:33.676Z,11.60
2022-09-17T01:53:02.969Z,11.50
2022-09-17T01:55:35.475Z,11.50
2022-09-17T01:58:07.492Z,11.50
2022-09-17T02:00:35.421Z,11.40
2022-09-17T02:03:20.240Z,11.40
2022-09-17T02:06:24.527Z,11.40
2022-09-17T02:09:02.193Z,11.50
2022-09-17T02:11:29.315Z,11.40
2022-09-17T02:14:13.135Z,11.40
2022-09-17T02:16:48.122Z,11.40
2022-09-17T02:19:29.007Z,11.30
2022-09-17T02:22:10.733Z,11.40
2022-09-17T02:27:52.435Z,11.40
2022-09-17T02:33:09.392Z,11.40
2022-09-17T02:35:36.426Z,11.30
2022-09-17T02:38:03.167Z,11.30
2022-09-17T02:40:36.146Z,11.30
2022-09-17T02:43:17.937Z,11.30
2022-09-17T02:46:18.892Z,11.30
2022-09-17T02:49:16.402Z,11.30
2022-09-17T02:51:51.886Z,11.40
2022-09-17T02:57:05.097Z,11.30
2022-09-17T03:02:28.291Z,11.40
2022-09-17T03:07:42.572Z,11.40
2022-09-17T03:12:56.254Z,11.40
2022-09-17T03:15:22.972Z,11.30
2022-09-17T03:17:53.221Z,11.40
2022-09-17T03:20:20.311Z,11.40
2022-09-17T03:25:34.545Z,11.40
2022-09-17T03:30:48.171Z,11.20
2022-09-17T03:33:14.939Z,11.40
2022-09-17T03:35:45.167Z,11.50
2022-09-17T03:38:12.924Z,11.40
2022-09-17T03:40:39.911Z,11.50
2022-09-17T03:43:07.162Z,11.40
2022-09-17T03:45:33.962Z,11.50
2022-09-17T03:48:00.822Z,11.40
2022-09-17T03:50:28.844Z,11.40
2022-09-17T03:52:55.557Z,11.40
2022-09-17T03:55:22.297Z,11.40
2022-09-17T03:57:49.051Z,11.40
2022-09-17T04:00:15.820Z,11.40
2022-09-17T04:02:42.605Z,11.40
2022-09-17T04:05:09.925Z,11.30
2022-09-17T04:07:36.643Z,11.40
2022-09-17T04:10:03.767Z,11.40
2022-09-17T04:12:30.442Z,11.40
2022-09-17T04:14:57.177Z,11.30
2022-09-17T04:17:23.939Z,11.30
2022-09-17T04:22:37.306Z,11.30
2022-09-17T04:27:51.195Z,11.30
2022-09-17T04:33:05.593Z,11.30
2022-09-17T04:35:32.343Z,11.30
2022-09-17T04:37:59.264Z,11.30
2022-09-17T04:40:27.427Z,11.20
2022-09-17T04:45:46.957Z,11.20
2022-09-17T04:51:00.355Z,11.20
2022-09-17T04:56:13.722Z,11.20
2022-09-17T05:01:27.327Z,11.20
2022-09-17T05:03:54.091Z,11.10
2022-09-17T05:06:20.804Z,11.10
2022-09-17T05:08:47.521Z,11.10
2022-09-17T05:11:14.231Z,11.10
2022-09-17T05:16:27.658Z,11.00
2022-09-17T05:18:54.503Z,10.90
2022-09-17T05:21:21.301Z,10.90
2022-09-17T05:23:48.050Z,10.80
2022-09-17T05:26:14.838Z,10.80
2022-09-17T05:28:41.869Z,10.70
2022-09-17T05:31:08.825Z,10.70
2022-09-17T05:33:35.666Z,10.70
2022-09-17T05:36:02.621Z,10.80
2022-09-17T05:38:29.578Z,10.80
2022-09-17T05:40:56.292Z,10.80
2022-09-17T05:43:23.027Z,10.80
2022-09-17T05:45:49.781Z,10.80
2022-09-17T05:48:16.724Z,10.90
2022-09-17T05:53:30.070Z,11.10
2022-09-17T05:58:45.261Z,11.10
2022-09-17T06:03:58.626Z,11.30
2022-09-17T06:06:25.364Z,11.20
2022-09-17T06:08:52.081Z,11.10
2022-09-17T06:11:18.808Z,11.10
2022-09-17T06:13:45.525Z,11.20
2022-09-17T06:16:12.263Z,11.10
2022-09-17T06:18:39.058Z,11.10
2022-09-17T06:21:05.874Z,11.00
2022-09-17T06:23:33.837Z,11.10
2022-09-17T06:26:01.445Z,11.10
2022-09-17T06:28:28.885Z,11.10
2022-09-17T06:30:59.969Z,11.30
2022-09-17T06:33:26.730Z,11.30
2022-09-17T06:36:01.436Z,11.40
2022-09-17T06:41:15.707Z,11.40
2022-09-17T06:46:29.556Z,11.60
2022-09-17T06:48:56.465Z,11.80
2022-09-17T06:51:23.193Z,11.90
2022-09-17T06:53:50.003Z,11.90
2022-09-17T06:56:16.785Z,11.90
2022-09-17T06:58:43.666Z,12.10
2022-09-17T07:01:11.762Z,12.10
2022-09-17T07:03:38.493Z,12.30
2022-09-17T07:06:08.499Z,12.40
2022-09-17T07:08:35.228Z,12.30
2022-09-17T07:11:01.931Z,12.40
2022-09-17T07:13:28.657Z,12.50
2022-09-17T07:16:00.572Z,12.60
2022-09-17T07:18:28.116Z,12.70
2022-09-17T07:20:59.827Z,12.80
2022-09-17T07:23:28.813Z,12.60
2022-09-17T07:26:00.983Z,12.60
2022-09-17T07:28:28.835Z,12.80
2022-09-17T07:30:56.246Z,12.80
2022-09-17T07:33:26.923Z,12.90
2022-09-17T07:36:07.687Z,12.80
2022-09-17T07:38:34.873Z,12.90
2022-09-17T07:41:02.684Z,13.20
2022-09-17T07:43:34.824Z,13.40
2022-09-17T07:46:04.007Z,13.30
2022-09-17T07:48:31.407Z,13.50
2022-09-17T07:50:58.455Z,13.70
2022-09-17T07:53:26.019Z,13.60
2022-09-17T07:55:54.472Z,13.40
2022-09-17T07:58:22.731Z,13.20
2022-09-17T08:00:49.697Z,13.40
2022-09-17T08:03:16.614Z,13.30
2022-09-17T08:05:43.390Z,13.30
2022-09-17T08:08:10.160Z,13.30
2022-09-17T08:10:36.892Z,13.30
2022-09-17T08:13:03.707Z,13.60
2022-09-17T08:15:30.445Z,14.30
2022-09-17T08:17:57.165Z,14.90
2022-09-17T08:20:23.905Z,14.30
2022-09-17T08:22:50.609Z,14.10
2022-09-17T08:25:17.574Z,14.00
2022-09-17T08:27:44.301Z,14.60
2022-09-17T08:30:11.305Z,14.40
2022-09-17T08:32:38.019Z,14.20
2022-09-17T08:35:05.090Z,13.90
2022-09-17T08:40:22.099Z,15.50
2022-09-17T08:42:56.833Z,15.80
2022-09-17T08:45:23.869Z,15.10
2022-09-17T08:47:50.634Z,15.00
2022-09-17T08:50:35.346Z,16.80
2022-09-17T08:53:04.796Z,15.30
2022-09-17T08:55:40.009Z,14.90
2022-09-17T09:01:39.303Z,15.50
2022-09-17T09:04:35.233Z,15.50
2022-09-17T09:07:16.602Z,14.50
2022-09-17T09:10:08.804Z,14.80
2022-09-17T09:12:37.543Z,15.40
2022-09-17T09:15:24.047Z,15.60
2022-09-17T09:17:51.861Z,15.20
2022-09-17T09:24:04.733Z,15.80
2022-09-17T09:27:15.470Z,16.00
2022-09-17T09:30:03.220Z,17.10
2022-09-17T09:32:50.892Z,17.30
2022-09-17T09:35:24.055Z,16.60
2022-09-17T09:38:01.875Z,17.30
2022-09-17T09:40:41.503Z,17.50
2022-09-17T09:43:22.329Z,17.80
2022-09-17T09:49:10.020Z,18.10
2022-09-17T09:51:51.775Z,19.10
2022-09-17T09:54:57.810Z,19.20
2022-09-17T09:57:46.784Z,18.90
2022-09-17T10:00:31.867Z,18.80
2022-09-17T10:03:09.681Z,18.30
2022-09-17T10:05:36.632Z,17.90
2022-09-17T10:11:02.606Z,18.10
2022-09-17T10:13:34.851Z,17.40
2022-09-17T10:16:24.339Z,17.90
2022-09-17T10:19:18.336Z,18.60
2022-09-17T10:21:45.207Z,19.10
2022-09-17T10:24:23.845Z,18.30
2022-09-17T10:26:51.624Z,18.20
2022-09-17T10:29:21.744Z,17.80
2022-09-17T10:31:57.128Z,18.30
2022-09-17T10:37:34.635Z,19.40
2022-09-17T10:40:01.578Z,19.50
2022-09-17T10:42:28.367Z,19.50
2022-09-17T10:44:56.998Z,19.00
2022-09-17T10:47:30.930Z,20.00
2022-09-17T10:49:59.415Z,19.30
2022-09-17T10:55:59.660Z,18.80
2022-09-17T10:58:47.732Z,17.90
2022-09-17T11:01:23.128Z,16.80
2022-09-17T11:07:18.237Z,16.40
2022-09-17T11:10:28.853Z,16.80
2022-09-17T11:13:04.673Z,17.00
2022-09-17T11:15:40.398Z,16.40
2022-09-17T11:18:25.795Z,16.40
2022-09-17T11:21:33.693Z,16.60
2022-09-17T11:24:17.740Z,16.10
2022-09-17T11:27:13.117Z,15.80
2022-09-17T11:30:22.181Z,15.40
2022-09-17T11:33:14.740Z,15.10
2022-09-17T11:38:49.118Z,14.80
2022-09-17T11:41:36.137Z,14.80
2022-09-17T11:47:25.186Z,15.60
2022-09-17T11:50:00.969Z,15.60
2022-09-17T11:52:34.691Z,16.50
2022-09-17T11:55:30.004Z,16.80
2022-09-17T11:58:44.158Z,16.90
2022-09-17T12:04:41.412Z,17.70
2022-09-17T12:07:16.249Z,17.40
2022-09-17T12:09:49.406Z,17.10
2022-09-17T12:12:47.583Z,16.70
2022-09-17T12:15:22.772Z,17.00
2022-09-17T12:18:08.633Z,18.00
2022-09-17T12:23:41.760Z,18.60
2022-09-17T12:26:45.009Z,19.00
2022-09-17T12:29:36.593Z,18.70
2022-09-17T12:35:41.046Z,19.00
2022-09-17T12:38:28.767Z,18.40
2022-09-17T12:41:15.739Z,18.30
2022-09-17T12:43:51.860Z,18.20
2022-09-17T12:46:27.594Z,17.80
2022-09-17T12:49:18.983Z,16.90
2022-09-17T12:51:45.649Z,17.60
2022-09-17T12:54:38.387Z,17.60
2022-09-17T12:57:38.886Z,17.20
2022-09-17T13:00:16.399Z,17.30
2022-09-17T13:02:56.068Z,17.10
2022-09-17T13:06:02.729Z,16.80
2022-09-17T13:08:41.193Z,16.80
2022-09-17T13:11:20.240Z,17.30
2022-09-17T13:14:25.689Z,17.30
2022-09-17T13:17:01.383Z,17.00
2022-09-17T13:20:11.247Z,16.70
2022-09-17T13:22:51.520Z,16.00
2022-09-17T13:25:20.617Z,16.40
2022-09-17T13:34:01.854Z,15.80
2022-09-17T13:36:38.896Z,15.90
2022-09-17T13:39:08.305Z,16.10
2022-09-17T13:44:26.117Z,15.80
2022-09-17T13:49:53.500Z,15.70
2022-09-17T13:52:50.515Z,15.50
2022-09-17T13:55:31.438Z,15.60
2022-09-17T13:57:58.545Z,15.50
2022-09-17T14:00:59.346Z,15.20
2022-09-17T14:03:28.834Z,15.40
2022-09-17T14:05:55.732Z,15.60
2022-09-17T14:08:30.393Z,15.60
2022-09-17T14:10:59.640Z,15.90
2022-09-17T14:13:28.199Z,16.40
2022-09-17T14:15:57.961Z,16.40
2022-09-17T14:18:27.529Z,16.20
2022-09-17T14:21:18.508Z,16.00
2022-09-17T14:23:50.184Z,15.50
2022-09-17T14:26:40.358Z,15.90
2022-09-17T14:29:32.338Z,16.00
2022-09-17T14:31:59.151Z,16.00
2022-09-17T14:37:17.615Z,15.60
2022-09-17T14:42:36.512Z,15.50
2022-09-17T14:45:15.409Z,15.40
2022-09-17T14:47:42.207Z,15.30
2022-09-17T14:50:25.762Z,15.20
2022-09-17T14:52:54.240Z,15.10
2022-09-17T14:55:25.472Z,15.00
2022-09-17T14:57:57.757Z,15.00
2022-09-17T15:00:28.431Z,14.90
2022-09-17T15:02:56.548Z,14.70
2022-09-17T15:05:37.621Z,14.50
2022-09-17T15:08:10.346Z,14.40
2022-09-17T15:10:47.061Z,14.30
2022-09-17T15:13:27.358Z,14.00
2022-09-17T15:16:17.877Z,13.90
2022-09-17T15:18:48.864Z,13.70
2022-09-17T15:21:27.722Z,13.50
2022-09-17T15:23:59.184Z,13.40
2022-09-17T15:26:31.430Z,13.20
2022-09-17T15:28:59.732Z,13.10
2022-09-17T15:31:28.911Z,13.00
2022-09-17T15:33:58.726Z,13.10
2022-09-17T15:36:27.111Z,13.10
2022-09-17T15:38:54.609Z,13.00
2022-09-17T15:41:33.689Z,12.80
2022-09-17T15:44:31.433Z,12.70
2022-09-17T15:47:35.394Z,12.60
2022-09-17T15:50:36.130Z,12.60
2022-09-17T15:53:08.997Z,12.40
2022-09-17T15:55:40.256Z,12.30
2022-09-17T15:58:22.267Z,12.30
2022-09-17T16:01:15.536Z,12.30
2022-09-17T16:03:42.202Z,12.20
2022-09-17T16:06:21.153Z,12.20
2022-09-17T16:08:56.394Z,12.10
2022-09-17T16:11:31.194Z,12.00
2022-09-17T16:16:46.877Z,11.60
2022-09-17T16:19:13.612Z,11.70
2022-09-17T16:21:40.329Z,11.60
2022-09-17T16:24:07.082Z,11.50
2022-09-17T16:26:35.577Z,11.40
2022-09-17T16:29:05.858Z,11.30
2022-09-17T16:31:33.817Z,11.30
2022-09-17T16:36:47.239Z,11.20
2022-09-17T16:39:13.960Z,11.40
2022-09-17T16:41:40.764Z,11.20
2022-09-17T16:44:07.578Z,11.30
2022-09-17T16:46:34.418Z,11.30
2022-09-17T16:49:01.245Z,11.20
2022-09-17T16:51:28.054Z,11.20
2022-09-17T16:53:54.770Z,11.20
2022-09-17T16:59:08.145Z,11.10
2022-09-17T17:04:21.681Z,11.10
2022-09-17T17:06:48.418Z,11.10
2022-09-17T17:09:15.234Z,11.10
2022-09-17T17:11:41.975Z,11.10
2022-09-17T17:14:11.554Z,11.10
2022-09-17T17:16:41.329Z,11.10
2022-09-17T17:19:08.041Z,11.20
2022-09-17T17:21:34.737Z,11.10
2022-09-17T17:24:01.720Z,11.10
2022-09-17T17:26:28.471Z,11.20
2022-09-17T17:28:55.252Z,11.10
2022-09-17T17:31:22.134Z,11.10
2022-09-17T17:33:48.900Z,11.10
2022-09-17T17:36:15.719Z,11.10
2022-09-17T17:38:42.440Z,11.00
2022-09-17T17:41:11.791Z,11.00
2022-09-17T17:43:38.943Z,11.00
2022-09-17T17:46:10.898Z,10.90
2022-09-17T17:48:38.177Z,10.90
2022-09-17T17:53:53.886Z,10.90
2022-09-17T17:59:07.282Z,10.80
2022-09-17T18:01:34.449Z,10.80
2022-09-17T18:04:03.710Z,10.80
2022-09-17T18:06:30.745Z,10.80
2022-09-17T18:08:57.823Z,10.80
2022-09-17T18:11:25.015Z,10.80
2022-09-17T18:13:53.721Z,10.80
2022-09-17T18:16:21.488Z,10.80
2022-09-17T18:18:48.912Z,10.80
2022-09-17T18:21:19.377Z,10.80
2022-09-17T18:26:33.672Z,10.80
2022-09-17T18:29:04.360Z,10.80
2022-09-17T18:31:35.340Z,10.70
2022-09-17T18:34:03.261Z,10.70
2022-09-17T18:42:06.683Z,10.70
2022-09-17T18:44:33.420Z,10.80
2022-09-17T18:47:00.320Z,10.80
2022-09-17T18:49:27.094Z,10.80
2022-09-17T18:51:53.810Z,10.80
2022-09-17T18:54:20.513Z,10.80
2022-09-17T18:56:47.258Z,10.80
2022-09-17T19:02:00.733Z,10.90
2022-09-17T19:07:14.124Z,11.00
2022-09-17T19:12:29.195Z,10.90
2022-09-17T19:17:42.595Z,10.90
2022-09-17T19:20:09.440Z,10.90
2022-09-17T19:22:36.188Z,10.90
2022-09-17T19:25:02.978Z,10.80
2022-09-17T19:27:29.826Z,10.80
2022-09-17T19:29:56.573Z,10.70
2022-09-17T19:32:23.766Z,10.80
2022-09-17T19:34:50.511Z,10.70
2022-09-17T19:37:17.206Z,10.70
2022-09-17T19:39:44.010Z,10.70
2022-09-17T19:42:11.415Z,10.70
2022-09-17T19:44:38.443Z,10.70
2022-09-17T19:47:05.266Z,10.70
2022-09-17T19:49:32.005Z,10.70
2022-09-17T19:51:58.703Z,10.70
2022-09-17T19:54:25.409Z,10.60
2022-09-17T19:56:52.100Z,10.60
2022-09-17T19:59:18.827Z,10.60
2022-09-17T20:01:49.265Z,10.60
2022-09-17T20:04:16.441Z,10.60
2022-09-17T20:06:43.158Z,10.60
2022-09-17T20:09:09.943Z,10.40
2022-09-17T20:11:39.063Z,10.50
2022-09-17T20:16:52.555Z,10.50
2022-09-17T20:19:19.519Z,10.60
2022-09-17T20:21:46.269Z,10.50
2022-09-17T20:24:13.757Z,10.50
2022-09-17T20:26:40.547Z,10.40
2022-09-17T20:31:53.912Z,10.50
2022-09-17T20:34:20.685Z,10.40
2022-09-17T20:36:47.366Z,10.40
2022-09-17T20:39:23.178Z,10.40
2022-09-17T20:41:50.415Z,10.40
2022-09-17T20:44:17.143Z,10.30
2022-09-17T20:46:43.930Z,10.30
2022-09-17T20:49:10.674Z,10.30
2022-09-17T20:51:37.418Z,10.30
2022-09-17T20:54:04.915Z,10.30
2022-09-17T20:56:33.549Z,10.30
2022-09-17T20:59:04.165Z,10.30
2022-09-17T21:01:31.487Z,10.20
2022-09-17T21:03:59.937Z,10.30
2022-09-17T21:06:31.930Z,10.10
2022-09-17T21:11:47.718Z,10.20
2022-09-17T21:17:02.217Z,10.10
2022-09-17T21:19:29.032Z,10.00
2022-09-17T21:21:56.606Z,10.00
2022-09-17T21:24:23.739Z,10.00
2022-09-17T21:26:51.222Z,10.10
2022-09-17T21:29:18.323Z,10.00
2022-09-17T21:31:45.118Z,10.10
2022-09-17T21:34:13.480Z,10.10
2022-09-17T21:36:41.715Z,10.10
2022-09-17T21:39:16.449Z,10.10
2022-09-17T21:41:44.812Z,10.00
2022-09-17T21:44:12.678Z,10.00
2022-09-17T21:46:40.732Z,10.00
2022-09-17T21:51:54.356Z,10.00
2022-09-17T21:57:07.737Z,9.90
2022-09-17T21:59:34.495Z,10.00
2022-09-17T22:02:01.241Z,10.10
2022-09-17T22:04:28.031Z,10.00
2022-09-17T22:06:54.879Z,10.00
2022-09-17T22:09:24.190Z,10.00
2022-09-17T22:11:51.883Z,10.00
2022-09-17T22:14:21.204Z,10.00
2022-09-17T22:16:51.130Z,10.00
2022-09-17T22:19:19.817Z,10.00
2022-09-17T22:24:35.956Z,10.10
2022-09-17T22:29:49.539Z,10.10
2022-09-17T22:32:16.387Z,10.20
2022-09-17T22:37:29.787Z,10.10
2022-09-17T22:39:56.586Z,10.20
2022-09-17T22:42:23.350Z,10.30
2022-09-17T22:44:50.065Z,10.30
2022-09-17T22:47:16.989Z,10.30
2022-09-17T22:49:43.738Z,10.30
2022-09-17T22:52:10.455Z,10.30
2022-09-17T22:54:37.305Z,10.30
2022-09-17T22:57:04.294Z,10.30
2022-09-17T22:59:31.002Z,10.30
2022-09-17T23:01:57.923Z,10.30
2022-09-17T23:04:24.725Z,10.30
2022-09-17T23:06:51.459Z,10.30
2022-09-17T23:09:18.189Z,10.30
2022-09-17T23:11:44.965Z,10.20
2022-09-17T23:14:13.159Z,10.20
2022-09-17T23:16:46.462Z,10.10
2022-09-17T23:19:14.378Z,10.10
2022-09-17T23:21:42.044Z,10.10
2022-09-17T23:24:10.372Z,10.10
2022-09-17T23:26:37.414Z,10.10
2022-09-17T23:29:05.818Z,10.00
2022-09-17T23:31:33.499Z,10.00
2022-09-17T23:34:00.472Z,9.90
2022-09-17T23:36:30.634Z,9.90
2022-09-17T23:38:59.011Z,9.90
2022-09-17T23:41:28.154Z,9.90
2022-09-17T23:43:57.546Z,9.90
2022-09-17T23:46:26.477Z,9.80
2022-09-17T23:48:53.931Z,9.70
2022-09-17T23:51:21.993Z,9.80
2022-09-17T23:53:49.215Z,9.70
2022-09-17T23:56:21.198Z,9.70
2022-09-17T23:58:48.859Z,9.70
